createdAt,value
2018-09-25T00:02:31.631Z,103273.80
2018-09-25T00:05:05.008Z,103276.48
2018-09-25T00:07:38.494Z,103273.69
2018-09-25T00:10:11.892Z,103272.56
2018-09-25T00:12:45.341Z,103280.75
2018-09-25T00:15:18.844Z,103282.72
2018-09-25T00:17:52.373Z,103292.84
2018-09-25T00:20:25.788Z,103289.84
2018-09-25T00:22:59.344Z,103292.58
2018-09-25T00:25:32.859Z,103293.68
2018-09-25T00:28:06.360Z,103287.82
2018-09-25T00:30:39.730Z,103298.27
2018-09-25T00:33:13.112Z,103304.30
2018-09-25T00:35:46.617Z,103296.31
2018-09-25T00:38:19.992Z,103304.30
2018-09-25T00:40:53.295Z,103298.00
2018-09-25T00:43:26.652Z,103302.70
2018-09-25T00:46:00.203Z,103303.83
2018-09-25T00:48:33.704Z,103302.73
2018-09-25T00:51:07.012Z,103303.31
2018-09-25T00:53:40.535Z,103308.61
2018-09-25T00:56:13.940Z,103313.10
2018-09-25T00:58:47.368Z,103310.64
2018-09-25T01:01:20.872Z,103316.19
2018-09-25T01:03:54.364Z,103310.69
2018-09-25T01:06:27.873Z,103311.86
2018-09-25T01:09:01.448Z,103314.89
2018-09-25T01:11:34.984Z,103319.59
2018-09-25T01:14:08.483Z,103321.53
2018-09-25T01:16:41.936Z,103327.31
2018-09-25T01:19:15.501Z,103325.41
2018-09-25T01:21:48.820Z,103326.78
2018-09-25T01:24:22.168Z,103322.41
2018-09-25T01:26:55.624Z,103329.80
2018-09-25T01:29:29.148Z,103331.44
2018-09-25T01:32:02.660Z,103330.59
2018-09-25T01:34:36.159Z,103324.23
2018-09-25T01:37:16.616Z,103332.75
2018-09-25T01:39:50.209Z,103333.84
2018-09-25T01:42:23.699Z,103335.48
2018-09-25T01:44:57.339Z,103338.45
2018-09-25T01:47:30.833Z,103330.70
2018-09-25T01:50:04.207Z,103336.98
2018-09-25T01:52:37.653Z,103337.24
2018-09-25T01:55:11.080Z,103336.09
2018-09-25T01:57:44.460Z,103341.30
2018-09-25T02:00:17.973Z,103342.38
2018-09-25T02:02:51.584Z,103342.94
2018-09-25T02:05:25.132Z,103347.27
2018-09-25T02:07:58.653Z,103340.66
2018-09-25T02:10:32.145Z,103345.63
2018-09-25T02:13:05.656Z,103344.19
2018-09-25T02:15:39.175Z,103344.98
2018-09-25T02:18:12.604Z,103356.22
2018-09-25T02:20:45.984Z,103358.06
2018-09-25T02:23:19.412Z,103354.19
2018-09-25T02:25:52.932Z,103360.19
2018-09-25T02:28:26.445Z,103362.63
2018-09-25T02:30:59.911Z,103362.28
2018-09-25T02:33:33.443Z,103364.97
2018-09-25T02:36:06.827Z,103363.53
2018-09-25T02:38:40.332Z,103359.38
2018-09-25T02:41:13.704Z,103362.66
2018-09-25T02:43:47.313Z,103369.19
2018-09-25T02:46:20.836Z,103378.20
2018-09-25T02:48:54.288Z,103372.05
2018-09-25T02:51:34.599Z,103372.83
2018-09-25T02:54:08.039Z,103373.61
2018-09-25T02:56:41.444Z,103379.11
2018-09-25T02:59:14.804Z,103381.53
2018-09-25T03:01:48.383Z,103388.36
2018-09-25T03:04:21.783Z,103387.52
2018-09-25T03:06:55.256Z,103386.93
2018-09-25T03:09:28.611Z,103394.33
2018-09-25T03:12:01.982Z,103393.73
2018-09-25T03:14:35.395Z,103396.19
2018-09-25T03:17:08.792Z,103392.88
2018-09-25T03:19:42.181Z,103393.20
2018-09-25T03:22:15.573Z,103402.80
2018-09-25T03:24:49.103Z,103403.86
2018-09-25T03:27:22.633Z,103405.80
2018-09-25T03:29:56.189Z,103405.48
2018-09-25T03:32:29.573Z,103409.60
2018-09-25T03:35:03.040Z,103412.28
2018-09-25T03:37:36.512Z,103416.96
2018-09-25T03:40:09.828Z,103425.72
2018-09-25T03:42:43.271Z,103421.61
2018-09-25T03:45:16.652Z,103427.38
2018-09-25T03:47:50.057Z,103424.95
2018-09-25T03:50:23.680Z,103425.48
2018-09-25T03:52:57.228Z,103427.38
2018-09-25T03:55:30.636Z,103422.98
2018-09-25T03:58:04.036Z,103431.98
2018-09-25T04:00:37.452Z,103429.17
2018-09-25T04:03:10.871Z,103425.06
2018-09-25T04:05:44.224Z,103434.14
2018-09-25T04:08:17.754Z,103437.72
2018-09-25T04:10:51.355Z,103439.63
2018-09-25T04:13:24.880Z,103443.74
2018-09-25T04:15:58.367Z,103451.73
2018-09-25T04:18:31.785Z,103451.98
2018-09-25T04:21:05.320Z,103457.15
2018-09-25T04:23:38.847Z,103453.53
2018-09-25T04:26:12.355Z,103461.44
2018-09-25T04:28:45.648Z,103464.44
2018-09-25T04:31:19.140Z,103468.27
2018-09-25T04:33:52.503Z,103471.30
2018-09-25T04:36:26.012Z,103472.38
2018-09-25T04:38:59.541Z,103477.31
2018-09-25T04:41:32.892Z,103472.31
2018-09-25T04:44:06.397Z,103481.00
2018-09-25T04:46:39.737Z,103475.45
2018-09-25T04:49:13.216Z,103479.80
2018-09-25T04:51:46.780Z,103483.92
2018-09-25T04:54:20.148Z,103484.45
2018-09-25T04:56:53.515Z,103484.69
2018-09-25T04:59:26.860Z,103485.22
2018-09-25T05:02:00.280Z,103480.30
2018-09-25T05:04:33.850Z,103482.44
2018-09-25T05:07:07.363Z,103487.84
2018-09-25T05:09:40.720Z,103488.63
2018-09-25T05:12:14.355Z,103494.03
2018-09-25T05:14:47.865Z,103491.22
2018-09-25T05:17:21.373Z,103495.33
2018-09-25T05:19:54.920Z,103490.94
2018-09-25T05:22:28.448Z,103499.45
2018-09-25T05:25:01.841Z,103497.27
2018-09-25T05:27:35.181Z,103497.27
2018-09-25T05:30:08.736Z,103497.27
2018-09-25T05:32:42.132Z,103494.52
2018-09-25T05:35:15.668Z,103501.37
2018-09-25T05:37:49.168Z,103497.27
2018-09-25T05:40:22.629Z,103503.03
2018-09-25T05:42:56.163Z,103501.98
2018-09-25T05:45:29.600Z,103502.58
2018-09-25T05:48:03.243Z,103502.87
2018-09-25T05:50:36.608Z,103502.94
2018-09-25T05:53:10.210Z,103499.67
2018-09-25T05:55:43.614Z,103501.08
2018-09-25T05:58:16.915Z,103500.63
2018-09-25T06:00:50.552Z,103502.67
2018-09-25T06:03:24.026Z,103508.27
2018-09-25T06:05:57.535Z,103515.03
2018-09-25T06:08:31.025Z,103508.95
2018-09-25T06:11:04.404Z,103509.76
2018-09-25T06:13:37.910Z,103516.30
2018-09-25T06:16:11.371Z,103518.83
2018-09-25T06:18:44.876Z,103521.03
2018-09-25T06:21:18.376Z,103517.48
2018-09-25T06:23:51.945Z,103516.69
2018-09-25T06:26:25.327Z,103515.84
2018-09-25T06:28:58.904Z,103523.52
2018-09-25T06:31:32.285Z,103531.20
2018-09-25T06:34:05.701Z,103521.83
2018-09-25T06:36:39.212Z,103531.52
2018-09-25T06:39:13.887Z,103535.98
2018-09-25T06:41:47.317Z,103541.36
2018-09-25T06:44:20.735Z,103550.30
2018-09-25T06:46:54.120Z,103551.85
2018-09-25T06:49:27.472Z,103548.45
2018-09-25T06:52:00.800Z,103551.38
2018-09-25T06:54:34.232Z,103555.14
2018-09-25T06:57:07.713Z,103553.95
2018-09-25T06:59:41.136Z,103564.31
2018-09-25T07:02:14.492Z,103561.58
2018-09-25T07:04:48.044Z,103562.69
2018-09-25T07:07:21.598Z,103558.52
2018-09-25T07:09:55.223Z,103568.87
2018-09-25T07:12:28.664Z,103572.83
2018-09-25T07:15:02.221Z,103567.02
2018-09-25T07:17:35.831Z,103580.30
2018-09-25T07:20:09.292Z,103586.30
2018-09-25T07:22:42.867Z,103587.55
2018-09-25T07:25:16.354Z,103588.51
2018-09-25T07:27:49.776Z,103585.52
2018-09-25T07:30:23.124Z,103596.94
2018-09-25T07:32:56.461Z,103596.66
2018-09-25T07:35:30.000Z,103599.22
2018-09-25T07:38:03.494Z,103596.41
2018-09-25T07:40:36.988Z,103598.61
2018-09-25T07:43:10.546Z,103602.80
2018-09-25T07:45:43.916Z,103602.78
2018-09-25T07:48:17.505Z,103604.90
2018-09-25T07:50:50.841Z,103608.27
2018-09-25T07:53:24.457Z,103611.98
2018-09-25T07:55:57.849Z,103606.17
2018-09-25T07:58:31.329Z,103602.61
2018-09-25T08:01:04.705Z,103618.88
2018-09-25T08:03:38.338Z,103616.98
2018-09-25T08:06:11.886Z,103621.78
2018-09-25T08:08:45.402Z,103626.77
2018-09-25T08:11:18.895Z,103636.03
2018-09-25T08:13:52.478Z,103642.20
2018-09-25T08:16:25.858Z,103639.73
2018-09-25T08:18:59.380Z,103639.22
2018-09-25T08:21:32.856Z,103648.18
2018-09-25T08:24:06.349Z,103657.41
2018-09-25T08:26:39.774Z,103655.23
2018-09-25T08:29:13.171Z,103651.41
2018-09-25T08:31:46.524Z,103663.52
2018-09-25T08:34:19.907Z,103663.05
2018-09-25T08:36:53.407Z,103668.94
2018-09-25T08:39:26.930Z,103680.00
2018-09-25T08:42:00.312Z,103674.94
2018-09-25T08:44:33.820Z,103676.84
2018-09-25T08:47:07.274Z,103678.98
2018-09-25T08:49:40.677Z,103680.25
2018-09-25T08:52:14.024Z,103679.03
2018-09-25T08:54:47.452Z,103679.69
2018-09-25T08:57:20.952Z,103686.25
2018-09-25T08:59:54.441Z,103682.00
2018-09-25T09:02:27.997Z,103682.28
2018-09-25T09:05:01.591Z,103680.15
2018-09-25T09:07:34.948Z,103687.87
2018-09-25T09:10:08.327Z,103684.45
2018-09-25T09:12:41.877Z,103689.67
2018-09-25T09:15:15.351Z,103696.02
2018-09-25T09:17:48.878Z,103695.91
2018-09-25T09:20:22.284Z,103700.63
2018-09-25T09:22:55.864Z,103697.50
2018-09-25T09:25:29.477Z,103698.64
2018-09-25T09:28:02.807Z,103697.83
2018-09-25T09:30:36.152Z,103698.11
2018-09-25T09:33:09.648Z,103699.17
2018-09-25T09:35:43.137Z,103702.94
2018-09-25T09:38:16.508Z,103693.83
2018-09-25T09:40:49.901Z,103691.91
2018-09-25T09:43:23.508Z,103695.19
2018-09-25T09:45:57.066Z,103691.53
2018-09-25T09:48:30.411Z,103684.47
2018-09-25T09:51:03.952Z,103680.12
2018-09-25T09:53:37.481Z,103690.16
2018-09-25T09:56:10.933Z,103688.22
2018-09-25T09:58:44.449Z,103693.33
2018-09-25T10:01:17.912Z,103699.83
2018-09-25T10:03:51.479Z,103699.62
2018-09-25T10:06:24.937Z,103706.10
2018-09-25T10:08:58.501Z,103714.31
2018-09-25T10:11:32.051Z,103711.05
2018-09-25T10:14:05.469Z,103712.75
2018-09-25T10:16:38.984Z,103713.15
2018-09-25T10:19:12.512Z,103706.20
2018-09-25T10:21:53.130Z,103696.34
2018-09-25T10:24:26.608Z,103704.70
2018-09-25T10:27:00.148Z,103697.65
2018-09-25T10:29:33.612Z,103700.15
2018-09-25T10:32:07.139Z,103702.78
2018-09-25T10:34:40.576Z,103701.14
2018-09-25T10:37:14.061Z,103701.14
2018-09-25T10:39:47.428Z,103700.13
2018-09-25T10:42:20.921Z,103700.37
2018-09-25T10:44:54.487Z,103696.84
2018-09-25T10:47:28.043Z,103698.70
2018-09-25T10:50:01.564Z,103696.24
2018-09-25T10:52:35.072Z,103704.80
2018-09-25T10:55:08.625Z,103702.08
2018-09-25T10:57:42.227Z,103694.13
2018-09-25T11:00:15.736Z,103697.83
2018-09-25T11:02:49.187Z,103694.44
2018-09-25T11:05:22.457Z,103687.78
2018-09-25T11:07:55.992Z,103691.48
2018-09-25T11:10:29.492Z,103696.87
2018-09-25T11:13:02.972Z,103700.02
2018-09-25T11:15:36.503Z,103695.59
2018-09-25T11:18:09.984Z,103702.42
2018-09-25T11:20:43.575Z,103694.97
2018-09-25T11:23:17.070Z,103691.45
2018-09-25T11:25:50.589Z,103684.41
2018-09-25T11:28:24.168Z,103685.14
2018-09-25T11:30:57.541Z,103696.45
2018-09-25T11:33:31.020Z,103702.27
2018-09-25T11:36:04.400Z,103702.27
2018-09-25T11:38:37.949Z,103700.07
2018-09-25T11:41:11.507Z,103701.42
2018-09-25T11:43:44.857Z,103696.23
2018-09-25T11:46:18.286Z,103697.39
2018-09-25T11:48:51.852Z,103695.22
2018-09-25T11:51:25.344Z,103690.63
2018-09-25T11:53:58.881Z,103691.48
2018-09-25T11:56:32.381Z,103686.89
2018-09-25T11:59:05.900Z,103676.41
2018-09-25T12:01:39.332Z,103681.11
2018-09-25T12:04:12.684Z,103684.42
2018-09-25T12:06:46.205Z,103690.53
2018-09-25T12:09:19.673Z,103687.80
2018-09-25T12:11:53.071Z,103676.90
2018-09-25T12:14:26.599Z,103675.83
2018-09-25T12:17:00.000Z,103668.59
2018-09-25T12:19:33.588Z,103667.09
2018-09-25T12:22:06.976Z,103661.27
2018-09-25T12:24:40.469Z,103655.09
2018-09-25T12:27:13.860Z,103654.87
2018-09-25T12:29:47.292Z,103651.44
2018-09-25T12:32:20.839Z,103651.84
2018-09-25T12:34:54.352Z,103659.30
2018-09-25T12:37:27.909Z,103643.81
2018-09-25T12:40:01.480Z,103649.30
2018-09-25T12:42:34.951Z,103649.87
2018-09-25T12:45:08.364Z,103637.47
2018-09-25T12:47:41.898Z,103612.35
2018-09-25T12:50:15.472Z,103599.91
2018-09-25T12:52:49.072Z,103609.16
2018-09-25T12:55:22.453Z,103618.39
2018-09-25T12:57:55.976Z,103620.30
2018-09-25T13:00:29.381Z,103618.47
2018-09-25T13:03:02.804Z,103621.47
2018-09-25T13:05:36.346Z,103627.77
2018-09-25T13:08:09.709Z,103625.91
2018-09-25T13:10:43.120Z,103627.31
2018-09-25T13:13:16.689Z,103630.45
2018-09-25T13:15:50.376Z,103629.52
2018-09-25T13:18:23.808Z,103625.80
2018-09-25T13:20:57.366Z,103622.75
2018-09-25T13:23:30.683Z,103626.66
2018-09-25T13:26:04.089Z,103623.03
2018-09-25T13:28:37.461Z,103617.50
2018-09-25T13:31:10.875Z,103620.77
2018-09-25T13:33:44.296Z,103619.13
2018-09-25T13:36:17.601Z,103616.61
2018-09-25T13:38:50.935Z,103605.75
2018-09-25T13:41:24.314Z,103607.17
2018-09-25T13:43:57.788Z,103601.76
2018-09-25T13:46:31.122Z,103588.75
2018-09-25T13:49:04.596Z,103592.48
2018-09-25T13:51:38.024Z,103587.64
2018-09-25T13:54:11.422Z,103594.91
2018-09-25T13:56:44.955Z,103594.34
2018-09-25T13:59:18.477Z,103593.69
2018-09-25T14:01:52.059Z,103593.52
2018-09-25T14:04:25.439Z,103596.41
2018-09-25T14:06:58.816Z,103594.76
2018-09-25T14:09:32.418Z,103586.88
2018-09-25T14:12:05.797Z,103590.59
2018-09-25T14:14:39.224Z,103591.00
2018-09-25T14:17:12.841Z,103590.81
2018-09-25T14:19:46.172Z,103591.94
2018-09-25T14:22:19.752Z,103593.27
2018-09-25T14:24:53.316Z,103590.05
2018-09-25T14:27:26.831Z,103586.84
2018-09-25T14:30:00.307Z,103583.61
2018-09-25T14:32:33.828Z,103586.81
2018-09-25T14:35:07.288Z,103589.37
2018-09-25T14:37:40.689Z,103585.28
2018-09-25T14:40:14.320Z,103588.23
2018-09-25T14:42:47.693Z,103587.89
2018-09-25T14:45:21.116Z,103587.90
2018-09-25T14:47:54.681Z,103585.77
2018-09-25T14:50:28.090Z,103588.15
2018-09-25T14:53:01.486Z,103583.92
2018-09-25T14:55:34.888Z,103585.25
2018-09-25T14:58:08.264Z,103588.06
2018-09-25T15:00:41.844Z,103592.13
2018-09-25T15:03:15.296Z,103592.41
2018-09-25T15:05:48.648Z,103590.07
2018-09-25T15:08:22.050Z,103590.80
2018-09-25T15:10:55.481Z,103584.82
2018-09-25T15:13:29.032Z,103591.56
2018-09-25T15:16:02.436Z,103589.61
2018-09-25T15:18:35.941Z,103596.56
2018-09-25T15:21:09.337Z,103601.67
2018-09-25T15:23:42.949Z,103601.05
2018-09-25T15:26:16.489Z,103607.05
2018-09-25T15:28:49.883Z,103606.02
2018-09-25T15:31:23.383Z,103600.43
2018-09-25T15:33:56.933Z,103603.98
2018-09-25T15:36:30.266Z,103604.66
2018-09-25T15:39:03.617Z,103605.23
2018-09-25T15:41:36.982Z,103600.98
2018-09-25T15:44:10.372Z,103605.27
2018-09-25T15:46:43.876Z,103598.46
2018-09-25T15:49:17.403Z,103601.63
2018-09-25T15:51:50.840Z,103603.07
2018-09-25T15:54:24.305Z,103603.71
2018-09-25T15:56:57.673Z,103592.89
2018-09-25T15:59:31.164Z,103601.02
2018-09-25T16:02:04.604Z,103600.55
2018-09-25T16:04:37.968Z,103603.70
2018-09-25T16:07:11.784Z,103600.44
2018-09-25T16:09:45.388Z,103607.23
2018-09-25T16:12:18.979Z,103606.20
2018-09-25T16:14:52.585Z,103606.24
2018-09-25T16:17:25.995Z,103598.86
2018-09-25T16:19:59.341Z,103605.41
2018-09-25T16:22:32.849Z,103602.73
2018-09-25T16:25:06.422Z,103598.98
2018-09-25T16:27:39.861Z,103598.23
2018-09-25T16:30:13.401Z,103595.23
2018-09-25T16:32:46.781Z,103603.41
2018-09-25T16:35:20.241Z,103597.91
2018-09-25T16:37:53.853Z,103597.17
2018-09-25T16:40:27.364Z,103600.05
2018-09-25T16:43:00.801Z,103598.48
2018-09-25T16:45:34.321Z,103595.27
2018-09-25T16:48:07.709Z,103592.03
2018-09-25T16:50:41.237Z,103595.28
2018-09-25T16:53:14.733Z,103594.30
2018-09-25T16:55:48.285Z,103592.27
2018-09-25T16:58:21.676Z,103589.05
2018-09-25T17:04:01.400Z,103583.51
2018-09-25T17:06:34.826Z,103582.79
2018-09-25T17:09:08.180Z,103579.53
2018-09-25T17:11:41.657Z,103573.55
2018-09-25T17:14:15.101Z,103571.13
2018-09-25T17:16:48.596Z,103558.69
2018-09-25T17:19:22.013Z,103563.79
2018-09-25T17:21:55.436Z,103559.41
2018-09-25T17:24:29.079Z,103555.01
2018-09-25T17:27:02.615Z,103544.75
2018-09-25T17:29:36.152Z,103543.13
2018-09-25T17:32:09.757Z,103533.16
2018-09-25T17:34:43.340Z,103527.63
2018-09-25T17:37:16.680Z,103526.57
2018-09-25T17:39:50.113Z,103533.86
2018-09-25T17:42:23.513Z,103538.10
2018-09-25T17:44:56.914Z,103538.67
2018-09-25T17:47:30.317Z,103547.65
2018-09-25T17:50:03.824Z,103540.42
2018-09-25T17:52:37.429Z,103541.03
2018-09-25T17:55:10.808Z,103540.22
2018-09-25T17:57:44.184Z,103546.09
2018-09-25T18:00:17.645Z,103551.13
2018-09-25T18:02:51.028Z,103551.43
2018-09-25T18:05:24.446Z,103554.20
2018-09-25T18:07:57.996Z,103552.28
2018-09-25T18:10:31.381Z,103553.67
2018-09-25T18:13:04.906Z,103556.13
2018-09-25T18:15:38.437Z,103552.79
2018-09-25T18:18:11.436Z,103553.12
2018-09-25T18:20:44.792Z,103553.47
2018-09-25T18:23:18.258Z,103557.44
2018-09-25T18:25:51.573Z,103559.17
2018-09-25T18:28:24.922Z,103550.28
2018-09-25T18:30:58.381Z,103559.55
2018-09-25T18:33:31.953Z,103555.10
2018-09-25T18:36:05.276Z,103559.06
2018-09-25T18:38:38.620Z,103551.03
2018-09-25T18:41:11.993Z,103547.18
2018-09-25T18:43:45.590Z,103545.86
2018-09-25T18:46:18.949Z,103550.66
2018-09-25T18:48:52.516Z,103562.95
2018-09-25T18:51:25.849Z,103563.55
2018-09-25T18:53:59.328Z,103564.45
2018-09-25T18:56:32.734Z,103561.45
2018-09-25T18:59:06.128Z,103564.30
2018-09-25T19:01:39.464Z,103574.92
2018-09-25T19:04:13.022Z,103571.37
2018-09-25T19:06:46.492Z,103563.09
2018-09-25T19:09:19.997Z,103558.69
2018-09-25T19:11:53.524Z,103555.97
2018-09-25T19:14:27.050Z,103564.33
2018-09-25T19:17:00.781Z,103562.95
2018-09-25T19:19:34.132Z,103563.56
2018-09-25T19:22:07.693Z,103559.70
2018-09-25T19:24:41.217Z,103566.96
2018-09-25T19:27:14.617Z,103565.87
2018-09-25T19:29:48.000Z,103554.81
2018-09-25T19:32:21.551Z,103553.17
2018-09-25T19:34:54.892Z,103546.81
2018-09-25T19:37:28.412Z,103546.02
2018-09-25T19:40:01.953Z,103534.66
2018-09-25T19:42:35.521Z,103539.67
2018-09-25T19:45:08.959Z,103544.42
2018-09-25T19:47:42.276Z,103541.94
2018-09-25T19:50:15.736Z,103538.06
2018-09-25T19:52:49.169Z,103532.22
2018-09-25T19:55:22.495Z,103538.06
2018-09-25T19:57:56.005Z,103545.30
2018-09-25T20:00:29.357Z,103543.94
2018-09-25T20:03:02.761Z,103547.00
2018-09-25T20:05:36.273Z,103538.70
2018-09-25T20:08:09.669Z,103531.50
2018-09-25T20:10:42.992Z,103538.98
2018-09-25T20:13:16.384Z,103534.84
2018-09-25T20:15:49.900Z,103537.03
2018-09-25T20:18:23.479Z,103527.89
2018-09-25T20:20:56.840Z,103522.91
2018-09-25T20:23:30.232Z,103525.67
2018-09-25T20:26:03.584Z,103524.02
2018-09-25T20:28:37.008Z,103542.32
2018-09-25T20:31:10.436Z,103540.92
2018-09-25T20:33:43.964Z,103547.33
2018-09-25T20:36:17.316Z,103536.52
2018-09-25T20:38:50.632Z,103535.95
2018-09-25T20:41:23.975Z,103532.08
2018-09-25T20:43:57.464Z,103534.55
2018-09-25T20:46:30.909Z,103530.11
2018-09-25T20:49:04.452Z,103537.88
2018-09-25T20:51:37.841Z,103530.94
2018-09-25T20:54:11.253Z,103526.80
2018-09-25T20:56:44.649Z,103526.79
2018-09-25T20:59:18.233Z,103522.34
2018-09-25T21:01:51.739Z,103523.75
2018-09-25T21:04:25.053Z,103523.75
2018-09-25T21:06:58.485Z,103523.45
2018-09-25T21:09:31.861Z,103514.31
2018-09-25T21:12:05.422Z,103508.48
2018-09-25T21:14:38.739Z,103518.75
2018-09-25T21:17:12.418Z,103507.10
2018-09-25T21:19:45.882Z,103502.13
2018-09-25T21:22:19.328Z,103499.34
2018-09-25T21:24:52.730Z,103502.67
2018-09-25T21:27:26.353Z,103491.84
2018-09-25T21:29:59.680Z,103480.77
2018-09-25T21:32:33.132Z,103491.00
2018-09-25T21:35:06.467Z,103476.59
2018-09-25T21:37:39.992Z,103474.92
2018-09-25T21:40:13.490Z,103481.86
2018-09-25T21:42:46.996Z,103486.02
2018-09-25T21:45:20.628Z,103492.13
2018-09-25T21:47:53.980Z,103492.38
2018-09-25T21:50:27.464Z,103489.90
2018-09-25T21:53:00.889Z,103487.38
2018-09-25T21:55:34.319Z,103483.52
2018-09-25T21:58:07.745Z,103484.61
2018-09-25T22:00:41.222Z,103489.06
2018-09-25T22:03:14.721Z,103486.26
2018-09-25T22:05:48.204Z,103484.61
2018-09-25T22:08:21.576Z,103482.39
2018-09-25T22:10:54.913Z,103479.06
2018-09-25T22:13:28.364Z,103481.00
2018-09-25T22:16:01.864Z,103472.12
2018-09-25T22:18:35.415Z,103465.48
2018-09-25T22:21:08.750Z,103461.88
2018-09-25T22:23:42.153Z,103457.71
2018-09-25T22:26:15.680Z,103463.55
2018-09-25T22:28:49.180Z,103461.06
2018-09-25T22:31:22.557Z,103457.19
2018-09-25T22:33:56.198Z,103459.96
2018-09-25T22:36:29.760Z,103447.48
2018-09-25T22:39:03.412Z,103447.48
2018-09-25T22:41:36.975Z,103455.22
2018-09-25T22:44:10.467Z,103449.13
2018-09-25T22:46:43.982Z,103445.80
2018-09-25T22:49:17.577Z,103437.48
2018-09-25T22:51:50.908Z,103436.67
2018-09-25T22:54:24.460Z,103443.02
2018-09-25T22:56:57.767Z,103444.41
2018-09-25T22:59:31.112Z,103437.22
2018-09-25T23:02:04.441Z,103434.16
2018-09-25T23:04:37.821Z,103426.94
2018-09-25T23:07:11.181Z,103412.81
2018-09-25T23:09:44.505Z,103409.48
2018-09-25T23:12:17.987Z,103402.81
2018-09-25T23:14:51.380Z,103401.98
2018-09-25T23:17:24.716Z,103395.63
2018-09-25T23:19:58.163Z,103395.33
2018-09-25T23:22:31.595Z,103392.02
2018-09-25T23:25:05.045Z,103397.27
2018-09-25T23:27:38.603Z,103391.17
2018-09-25T23:30:12.076Z,103400.33
2018-09-25T23:32:45.610Z,103398.95
2018-09-25T23:35:18.952Z,103408.94
2018-09-25T23:37:52.337Z,103404.78
2018-09-25T23:40:25.656Z,103403.68
2018-09-25T23:42:59.168Z,103398.98
2018-09-25T23:45:34.366Z,103401.72
2018-09-25T23:48:06.588Z,103389.81
2018-09-25T23:50:37.735Z,103384.27
2018-09-25T23:53:09.684Z,103386.20
2018-09-25T23:55:44.838Z,103380.11
2018-09-25T23:59:20.884Z,103376.79
